Terminal Aerodrome Forecast
Issued by NWS

Home | Current Version | Previous Version | Text Only | Print | Product List | Glossary On
Versions: 1 2 3 4 5 6 7 8 9 10 11 12 13
000
FTUS46 KSEW 290500
TAFBFI
TAF
KBFI 290536Z 2906/3006 21005KT P6SM SCT045 BKN250
     FM291100 20006KT P6SM OVC030
     FM291300 19006KT P6SM OVC015
     FM291700 22007KT P6SM BKN020 OVC025
     FM292000 24008KT P6SM BKN030 OVC050=

USA.gov is the U.S. government's official web portal to all federal, state and local government web resources and services.